Time;durP1;ratioP1;P1;durP2;ratioP2;P2;SDS_P1;SDS_P2;PMS_P1;PMS_P2;Temp;Humidity;BMP_temperature;BMP_pressure;BME280_temperature;BME280_humidity;BME280_pressure;Samples;Min_cycle;Max_cycle;Signal;HPM_P1;HPM_P2
2022/12/24 08:00:56;;;;;;;52.60;38.53;;;;;;;23.83;28.69;100706.13;6269143;22;20011;-91
2022/12/24 08:06:43;;;;;;;;;;;;;;;24.81;27.17;100720.31;6360556;22;20015;-90
2022/12/24 08:12:58;;;;;;;51.10;32.72;;;;;;;25.90;25.89;100707.59;6360316;22;20084;-86
2022/12/24 08:15:29;;;;;;;44.85;30.83;;;;;;;26.33;25.12;100699.38;6354470;22;20482;-89
2022/12/24 08:17:59;;;;;;;41.17;31.02;;;;;;;26.93;24.63;100691.75;6360606;22;20094;-88
2022/12/24 08:20:47;;;;;;;43.38;30.80;;;;;;;27.80;23.26;100714.09;6316855;22;20015;-88
2022/12/24 08:23:16;;;;;;;36.42;29.17;;;;;;;28.36;22.66;100696.72;6292576;22;20019;-89
2022/12/24 08:31:43;;;;;;;37.70;27.98;;;;;;;29.67;20.99;100696.50;6287160;22;20037;-90
2022/12/24 08:34:50;;;;;;;42.90;29.48;;;;;;;30.19;20.12;100693.31;6326944;22;20026;-90
2022/12/24 09:05:52;;;;;;;30.67;24.83;;;;;;;31.20;18.71;100662.75;6235345;22;20014;-95
2022/12/24 09:29:14;;;;;;;29.83;19.05;;;;;;;27.27;23.34;100649.94;6318717;22;20011;-93
2022/12/24 09:31:46;;;;;;;24.85;19.55;;;;;;;28.04;22.29;100655.56;6292027;22;22109;-93
2022/12/24 09:40:01;;;;;;;30.27;18.60;;;;;;;26.87;23.91;100632.97;6253146;22;20015;-94
2022/12/24 10:51:28;;;;;;;20.65;13.23;;;;;;;31.06;18.91;100567.47;6228863;22;20023;-88
2022/12/24 11:11:54;;;;;;;17.02;12.55;;;;;;;24.77;26.71;100583.63;6315974;22;20019;-88
2022/12/24 11:14:38;;;;;;;20.75;13.07;;;;;;;25.01;26.76;100554.75;6281548;22;20011;-87
2022/12/24 11:17:06;;;;;;;18.58;13.85;;;;;;;25.04;26.69;100562.50;6319759;22;20010;-88
2022/12/24 11:29:50;;;;;;;;;;;;;;;26.41;25.74;100583.13;6329802;22;20019;-91
2022/12/24 11:38:30;;;;;;;18.05;12.32;;;;;;;27.28;24.11;100577.09;6325491;22;19903;-91
2022/12/24 11:41:42;;;;;;;18.20;11.73;;;;;;;26.99;24.37;100579.50;6300952;22;20019;-89
2022/12/24 11:44:28;;;;;;;19.02;12.25;;;;;;;25.58;26.03;100538.78;6337543;22;20067;-84
2022/12/24 11:46:57;;;;;;;17.33;11.85;;;;;;;25.01;26.96;100579.53;6321866;22;20106;-88
2022/12/24 11:49:29;;;;;;;17.30;11.90;;;;;;;24.09;28.08;100539.91;6326453;22;20051;-89
2022/12/24 11:52:38;;;;;;;22.63;12.20;;;;;;;23.11;29.68;100566.84;6352785;22;20010;-86
2022/12/24 11:55:26;;;;;;;19.15;11.93;;;;;;;21.79;31.72;100587.53;6310372;22;20089;-87
2022/12/24 11:58:02;;;;;;;21.40;12.32;;;;;;;20.54;34.10;100576.28;6298644;22;20402;-85
2022/12/24 12:00:30;;;;;;;17.25;11.80;;;;;;;20.24;34.72;100593.41;6302394;22;20014;-90
2022/12/24 12:06:44;;;;;;;21.00;12.50;;;;;;;18.95;37.51;100609.28;6347944;22;20048;-87
2022/12/24 12:12:42;;;;;;;21.58;13.57;;;;;;;18.98;37.89;100597.09;6232347;23;20157;-85
2022/12/24 12:15:12;;;;;;;19.60;13.18;;;;;;;18.71;38.70;100599.09;6284792;22;20006;-87
2022/12/24 12:18:09;;;;;;;18.80;13.23;;;;;;;19.15;37.96;100589.25;6328504;22;20024;-88
2022/12/24 12:20:52;;;;;;;22.75;13.25;;;;;;;19.44;38.02;100597.88;6352155;22;19998;-90
2022/12/24 12:59:39;;;;;;;14.93;7.40;;;;;;;17.75;40.45;100588.81;6331236;22;20015;-81
2022/12/24 13:02:42;;;;;;;12.40;6.18;;;;;;;17.61;40.80;100598.88;6283035;22;20082;-83
2022/12/24 13:05:30;;;;;;;10.23;5.90;;;;;;;16.41;43.50;100602.06;6307505;22;20018;-83
2022/12/24 13:08:26;;;;;;;12.90;6.53;;;;;;;16.17;44.42;100606.06;6338889;22;20010;-83
2022/12/24 13:10:56;;;;;;;12.07;6.28;;;;;;;15.67;45.56;100601.72;6340259;22;20179;-81
2022/12/24 13:13:46;;;;;;;10.32;7.10;;;;;;;15.26;46.82;100611.34;6283194;22;20093;-85
2022/12/24 13:16:33;;;;;;;10.73;7.07;;;;;;;15.13;46.95;100589.56;6336511;22;20002;-82
2022/12/24 13:19:26;;;;;;;10.85;7.32;;;;;;;14.72;48.34;100612.59;6311843;22;20018;-85
2022/12/24 13:21:53;;;;;;;15.95;7.72;;;;;;;14.67;48.38;100606.09;6319533;22;20014;-85
2022/12/24 13:24:21;;;;;;;12.88;8.13;;;;;;;14.61;49.16;100610.41;6287060;22;20013;-81
2022/12/24 13:27:30;;;;;;;12.13;8.20;;;;;;;14.63;49.09;100615.63;6324233;22;20044;-82
2022/12/24 13:30:32;;;;;;;15.75;8.63;;;;;;;14.62;49.40;100613.94;6355321;22;20007;-82
2022/12/24 13:32:59;;;;;;;16.15;8.77;;;;;;;14.23;49.69;100588.84;6348708;22;20076;-86
2022/12/24 13:35:28;;;;;;;19.10;8.88;;;;;;;14.36;50.07;100607.13;6313137;22;20076;-82
2022/12/24 13:38:16;;;;;;;19.33;9.05;;;;;;;14.44;50.21;100612.41;6311988;22;20045;-85
2022/12/24 13:40:45;;;;;;;13.70;8.65;;;;;;;14.38;50.28;100607.78;6316002;22;20018;-85
2022/12/24 13:43:15;;;;;;;14.32;9.20;;;;;;;14.38;50.20;100612.34;6342265;22;20476;-89
2022/12/24 13:45:43;;;;;;;14.45;8.68;;;;;;;14.37;50.00;100603.38;6284961;22;20087;-84
2022/12/24 13:48:21;;;;;;;15.70;8.98;;;;;;;14.47;50.04;100612.06;6286837;22;20415;-87
2022/12/24 13:50:52;;;;;;;16.17;9.63;;;;;;;14.51;49.83;100602.53;6341214;22;20047;-84
2022/12/24 13:53:27;;;;;;;20.58;9.05;;;;;;;14.50;49.91;100608.97;6310472;22;20011;-87
2022/12/24 13:56:11;;;;;;;14.02;9.18;;;;;;;14.52;50.05;100608.78;6337994;22;20347;-82
2022/12/24 13:58:46;;;;;;;20.90;9.80;;;;;;;14.56;50.48;100616.38;6313037;22;20045;-88
2022/12/24 14:01:23;;;;;;;16.35;10.00;;;;;;;14.55;50.27;100609.28;6287681;22;20018;-87
2022/12/24 14:04:01;;;;;;;16.55;10.20;;;;;;;14.53;50.43;100618.56;6290445;22;20007;-86
2022/12/24 14:06:40;;;;;;;25.60;10.55;;;;;;;14.36;50.54;100609.81;6348542;22;20479;-87
2022/12/24 14:09:16;;;;;;;17.90;10.95;;;;;;;14.30;50.95;100588.94;6296798;22;20118;-86
2022/12/24 14:12:05;;;;;;;19.23;12.13;;;;;;;14.45;50.99;100618.69;6321642;22;20006;-86
2022/12/24 14:14:57;;;;;;;22.85;12.88;;;;;;;14.39;51.52;100625.66;6361019;22;19995;-89
2022/12/24 14:17:32;;;;;;;24.98;13.50;;;;;;;14.12;51.57;100595.56;6348798;22;19998;-87
2022/12/24 14:28:09;;;;;;;27.48;14.63;;;;;;;14.01;52.27;100630.31;6339177;22;20026;-85
2022/12/24 14:30:34;;;;;;;25.58;13.13;;;;;;;13.64;52.73;100596.88;6320258;22;20014;-86
2022/12/24 14:33:47;;;;;;;28.27;12.20;;;;;;;13.46;52.84;100580.97;6326450;22;20003;-87
2022/12/24 14:37:13;;;;;;;18.23;9.10;;;;;;;13.71;52.93;100631.06;6352896;22;20429;-89
2022/12/24 14:40:52;;;;;;;17.80;8.60;;;;;;;13.43;52.79;100602.97;6356003;22;20043;-90
2022/12/24 14:44:34;;;;;;;16.17;8.73;;;;;;;13.36;53.42;100607.41;6300571;22;20007;-88
2022/12/24 14:47:14;;;;;;;14.52;8.32;;;;;;;13.38;53.31;100626.97;6297697;22;20018;-92
2022/12/24 14:50:07;;;;;;;13.30;8.25;;;;;;;13.16;53.61;100624.06;6293950;22;20031;-87
2022/12/24 14:53:20;;;;;;;13.90;8.40;;;;;;;13.28;53.68;100632.63;6287869;22;20026;-88
2022/12/24 14:56:32;;;;;;;18.60;8.40;;;;;;;13.14;53.22;100593.69;6299964;22;20176;-89
2022/12/24 15:04:57;;;;;;;23.83;10.60;;;;;;;13.29;53.29;100648.63;6354312;22;20284;-88
2022/12/24 15:10:40;;;;;;;26.85;14.95;;;;;;;13.14;54.62;100655.78;6356973;22;20023;-89
2022/12/24 15:13:33;;;;;;;32.88;16.27;;;;;;;13.01;54.97;100652.81;6341195;22;20355;-89
2022/12/24 15:16:23;;;;;;;27.00;15.38;;;;;;;12.85;55.65;100660.00;6345098;22;20061;-85
2022/12/24 15:18:56;;;;;;;27.83;14.45;;;;;;;12.71;55.94;100658.00;6325403;22;20015;-88
2022/12/24 15:21:31;;;;;;;30.52;16.15;;;;;;;12.44;56.35;100625.06;6275203;22;20074;-87
2022/12/24 15:23:58;;;;;;;33.40;17.30;;;;;;;12.40;56.57;100623.72;6283935;22;20015;-85
2022/12/24 15:26:33;;;;;;;31.77;17.35;;;;;;;12.55;56.53;100663.44;6315023;22;20048;-83
2022/12/24 15:29:15;;;;;;;37.70;20.73;;;;;;;12.62;56.35;100662.59;6292913;22;20057;-88
2022/12/24 15:31:41;;;;;;;42.42;20.15;;;;;;;12.56;56.43;100651.66;6315342;22;20003;-85
2022/12/24 15:34:34;;;;;;;30.60;18.20;;;;;;;12.58;56.44;100663.97;6301507;22;20022;-87
2022/12/24 15:37:17;;;;;;;35.65;16.63;;;;;;;12.44;56.28;100643.94;6314924;22;19999;-86
2022/12/24 15:40:06;;;;;;;23.75;13.57;;;;;;;12.54;55.73;100653.69;6313337;22;20060;-85
2022/12/24 15:42:54;;;;;;;22.45;12.65;;;;;;;12.32;55.74;100649.91;6320340;22;20045;-87
2022/12/24 15:45:35;;;;;;;24.75;12.18;;;;;;;12.02;55.79;100622.66;6294238;22;20007;-87
2022/12/24 15:48:11;;;;;;;18.38;9.63;;;;;;;12.07;56.67;100628.38;6348355;22;20007;-90
2022/12/24 15:51:19;;;;;;;18.13;9.57;;;;;;;12.25;55.31;100665.91;6320078;22;20011;-87
2022/12/24 15:53:50;;;;;;;13.65;8.07;;;;;;;12.18;55.57;100667.63;6356177;22;20063;-88
2022/12/24 15:56:36;;;;;;;19.42;8.48;;;;;;;12.14;55.58;100671.66;6300076;22;20003;-89
2022/12/24 16:02:48;;;;;;;19.67;9.93;;;;;;;12.31;54.98;100678.69;6337842;22;20009;-84
2022/12/24 16:05:29;;;;;;;14.27;8.93;;;;;;;12.28;55.30;100672.81;6332899;22;20009;-84
2022/12/24 16:08:08;;;;;;;15.00;8.38;;;;;;;12.20;55.08;100673.69;6356201;22;20339;-84
2022/12/24 16:11:20;;;;;;;15.02;7.63;;;;;;;12.15;55.32;100679.59;6319466;22;20083;-88
2022/12/24 16:14:21;;;;;;;15.88;7.63;;;;;;;11.99;55.53;100677.75;6341461;22;20327;-88
2022/12/24 16:16:58;;;;;;;16.48;8.50;;;;;;;12.15;55.79;100684.09;6327982;22;20097;-86
2022/12/24 16:19:30;;;;;;;12.25;7.20;;;;;;;12.16;55.36;100692.03;6287053;22;20007;-84
2022/12/24 16:21:57;;;;;;;12.52;6.68;;;;;;;11.81;55.73;100650.94;6290463;22;20056;-86
2022/12/24 16:24:32;;;;;;;13.95;7.70;;;;;;;11.88;55.57;100667.31;6287874;22;19999;-87
2022/12/24 16:26:58;;;;;;;11.15;6.07;;;;;;;12.07;55.58;100694.91;6324701;22;20071;-84
2022/12/24 16:29:26;;;;;;;10.65;5.78;;;;;;;11.65;55.87;100639.34;6283312;22;20053;-84
2022/12/24 16:31:57;;;;;;;10.27;6.22;;;;;;;11.88;55.53;100670.00;6341044;22;20024;-84
2022/12/24 16:34:26;;;;;;;10.25;5.72;;;;;;;11.67;56.00;100681.25;6285374;22;20003;-86
2022/12/24 16:37:10;;;;;;;9.88;5.50;;;;;;;11.84;55.91;100703.63;6291663;22;20006;-83
2022/12/24 16:39:38;;;;;;;9.77;4.80;;;;;;;11.61;55.99;100660.34;6320644;22;20002;-87
2022/12/24 16:45:14;;;;;;;10.90;5.10;;;;;;;11.71;56.11;100681.75;6351596;22;20067;-85
2022/12/24 16:48:00;;;;;;;8.15;4.70;;;;;;;11.62;56.31;100673.66;6330197;22;20074;-86
2022/12/24 16:50:28;;;;;;;8.63;4.65;;;;;;;11.65;56.94;100687.81;6328605;22;20044;-86
2022/12/24 16:53:19;;;;;;;7.47;4.57;;;;;;;11.80;57.52;100705.00;6310154;22;20076;-91
2022/12/24 16:58:28;;;;;;;8.50;4.85;;;;;;;11.41;60.76;100670.63;6268696;22;20085;-86
2022/12/24 17:00:55;;;;;;;7.03;4.60;;;;;;;11.49;60.91;100688.63;6308929;22;20007;-84
2022/12/24 17:03:22;;;;;;;9.63;4.80;;;;;;;11.40;61.24;100695.84;6280303;22;19995;-85
2022/12/24 17:05:48;;;;;;;11.23;4.70;;;;;;;11.39;62.20;100704.94;6254640;22;20382;-83
2022/12/24 17:08:13;;;;;;;8.20;4.93;;;;;;;11.39;65.56;100696.84;6304346;22;20075;-80
2022/12/24 17:10:39;;;;;;;10.48;5.25;;;;;;;11.44;64.48;100699.91;6252222;22;20007;-87
2022/12/24 17:13:14;;;;;;;8.90;5.20;;;;;;;11.18;62.72;100691.94;6289741;22;20075;-82
2022/12/24 17:15:42;;;;;;;8.45;5.40;;;;;;;11.09;63.61;100701.00;6290174;22;20066;-83
2022/12/24 17:18:08;;;;;;;11.50;6.57;;;;;;;10.83;64.52;100682.22;6229726;22;20046;-82
2022/12/24 17:20:34;;;;;;;12.90;7.65;;;;;;;11.15;65.26;100721.88;6278724;22;20415;-84
2022/12/24 17:23:03;;;;;;;16.15;7.97;;;;;;;11.09;65.96;100720.66;6255313;22;20856;-83
2022/12/24 17:25:30;;;;;;;18.80;8.80;;;;;;;10.92;66.46;100713.53;6277302;22;20080;-81
2022/12/24 17:27:57;;;;;;;25.48;10.43;;;;;;;10.90;66.63;100713.69;6277158;22;20428;-80
2022/12/24 17:30:26;;;;;;;29.55;11.55;;;;;;;11.11;66.54;100712.44;6303481;22;20006;-80
2022/12/24 17:32:51;;;;;;;26.08;12.38;;;;;;;10.87;66.39;100684.44;6276399;22;20364;-82
2022/12/24 17:35:17;;;;;;;20.52;11.13;;;;;;;11.00;66.86;100718.94;6275773;22;19999;-81
2022/12/24 17:37:45;;;;;;;12.00;7.18;;;;;;;11.00;67.10;100710.88;6248546;22;20424;-80
2022/12/24 17:40:11;;;;;;;12.85;7.35;;;;;;;11.05;66.89;100716.63;6250669;22;20018;-80
2022/12/24 17:42:37;;;;;;;12.50;7.38;;;;;;;10.97;67.37;100717.41;6303216;22;20014;-82
2022/12/24 17:45:06;;;;;;;13.15;7.43;;;;;;;10.73;68.47;100711.94;6276915;22;20003;-82
2022/12/24 17:47:34;;;;;;;11.07;7.28;;;;;;;10.90;68.25;100720.94;6302775;22;20019;-81
2022/12/24 17:50:06;;;;;;;12.65;7.70;;;;;;;10.85;68.40;100718.72;6278215;22;19995;-82
2022/12/24 17:52:52;;;;;;;12.13;6.88;;;;;;;10.86;68.13;100722.25;6305574;22;20026;-82
2022/12/24 17:55:21;;;;;;;12.75;6.95;;;;;;;10.77;68.16;100700.72;6307339;22;20052;-85
2022/12/24 17:57:48;;;;;;;13.38;7.25;;;;;;;10.76;68.57;100700.84;6241550;22;20003;-82
2022/12/24 18:00:18;;;;;;;12.15;7.28;;;;;;;10.70;68.58;100696.97;6327248;22;20003;-86
2022/12/24 18:02:43;;;;;;;12.30;7.60;;;;;;;10.66;68.62;100681.31;6312253;22;20082;-82
2022/12/24 18:05:10;;;;;;;12.25;7.65;;;;;;;10.76;68.32;100696.31;6227959;22;20018;-81
2022/12/24 18:07:35;;;;;;;14.05;8.07;;;;;;;10.73;68.89;100704.72;6277942;22;19991;-85
2022/12/24 18:10:03;;;;;;;12.48;7.30;;;;;;;10.62;68.92;100688.84;6251857;22;20011;-82
2022/12/24 18:12:30;;;;;;;11.23;7.45;;;;;;;10.85;68.58;100707.97;6252151;22;20110;-82
2022/12/24 18:14:59;;;;;;;11.32;6.88;;;;;;;10.65;68.91;100693.94;6255819;22;19999;-84
2022/12/24 18:17:31;;;;;;;11.20;6.78;;;;;;;10.63;69.19;100698.63;6259219;22;20007;-85
2022/12/24 18:19:57;;;;;;;11.20;6.50;;;;;;;10.52;69.61;100704.28;6277775;22;19995;-83
2022/12/24 18:22:23;;;;;;;10.95;6.57;;;;;;;10.59;69.28;100710.69;6256317;22;20008;-83
2022/12/24 18:24:49;;;;;;;16.85;9.15;;;;;;;10.44;69.47;100677.34;6283174;22;20011;-85
2022/12/24 18:27:17;;;;;;;16.65;8.80;;;;;;;10.67;69.50;100704.50;6287386;22;20010;-84
2022/12/24 18:29:51;;;;;;;18.83;10.45;;;;;;;10.71;68.95;100704.03;6278003;22;20402;-85
2022/12/24 18:32:17;;;;;;;18.33;9.75;;;;;;;10.53;68.92;100676.38;6280887;22;20050;-86
2022/12/24 18:34:43;;;;;;;18.73;9.90;;;;;;;10.56;69.44;100697.59;6260106;22;20003;-84
2022/12/24 18:37:09;;;;;;;16.83;9.63;;;;;;;10.54;68.83;100684.28;6290226;22;20014;-83
2022/12/24 18:39:36;;;;;;;15.27;9.23;;;;;;;10.76;68.78;100712.44;6282884;22;20378;-84
2022/12/24 18:42:03;;;;;;;17.35;9.80;;;;;;;10.78;68.58;100717.69;6317042;22;20062;-88
2022/12/24 18:44:31;;;;;;;23.17;13.52;;;;;;;10.74;68.72;100709.06;6315200;22;19999;-91
2022/12/24 18:47:02;;;;;;;20.77;12.88;;;;;;;10.80;68.60;100709.47;6273317;22;20007;-87
2022/12/24 18:49:30;;;;;;;19.25;10.70;;;;;;;10.73;68.16;100701.19;6314197;22;20037;-83
2022/12/24 18:51:56;;;;;;;16.15;9.20;;;;;;;10.70;67.47;100718.50;6281470;22;20007;-85
2022/12/24 18:54:23;;;;;;;13.43;7.78;;;;;;;10.69;66.92;100714.09;6254209;22;20011;-84
2022/12/24 18:56:50;;;;;;;25.60;15.00;;;;;;;10.38;67.92;100699.50;6284710;22;20064;-84
2022/12/24 18:59:17;;;;;;;18.38;11.65;;;;;;;10.43;67.50;100695.31;6231980;22;20063;-82
2022/12/24 19:01:44;;;;;;;15.00;8.52;;;;;;;10.54;67.37;100704.97;6298005;22;20124;-82
2022/12/24 19:04:13;;;;;;;17.30;8.63;;;;;;;10.56;67.25;100713.72;6276897;22;20093;-83
2022/12/24 19:06:42;;;;;;;13.82;7.53;;;;;;;10.35;67.55;100676.47;6277376;22;20447;-81
2022/12/24 19:09:07;;;;;;;14.55;8.52;;;;;;;10.52;67.65;100707.78;6276186;22;20317;-82
2022/12/24 19:11:35;;;;;;;16.65;8.57;;;;;;;10.48;67.61;100700.22;6277082;22;20011;-82
2022/12/24 19:14:05;;;;;;;16.48;8.88;;;;;;;10.47;67.78;100714.66;6303275;22;20091;-82
2022/12/24 19:16:35;;;;;;;16.13;8.80;;;;;;;10.49;67.75;100718.03;6305292;22;20174;-81
2022/12/24 19:19:07;;;;;;;14.43;7.95;;;;;;;10.53;67.64;100724.75;6305151;22;20007;-83
2022/12/24 19:21:33;;;;;;;17.77;9.27;;;;;;;10.35;68.11;100717.63;6279025;22;20045;-82
2022/12/24 19:24:00;;;;;;;13.45;7.82;;;;;;;10.28;68.56;100723.75;6275720;22;20086;-83
2022/12/24 19:26:26;;;;;;;11.52;7.28;;;;;;;10.32;68.52;100727.81;6276682;22;20553;-81
2022/12/24 19:28:59;;;;;;;11.90;6.65;;;;;;;10.08;68.59;100701.59;6300309;22;20007;-82
2022/12/24 19:31:25;;;;;;;11.48;6.38;;;;;;;9.98;68.74;100692.81;6306911;22;19999;-82
2022/12/24 19:33:51;;;;;;;;;;;;;;;10.19;68.95;100732.75;6318107;22;20015;-83
2022/12/24 19:36:20;;;;;;;12.15;6.43;;;;;;;10.02;69.05;100715.66;6309032;22;19936;-84
2022/12/24 19:38:55;;;;;;;11.90;7.03;;;;;;;9.92;69.46;100705.84;6303930;22;20088;-83
2022/12/24 19:41:25;;;;;;;10.30;6.85;;;;;;;10.15;69.24;100737.59;6309685;22;20014;-84
2022/12/24 19:43:56;;;;;;;9.35;5.90;;;;;;;10.13;69.13;100734.22;6278566;22;20030;-82
2022/12/24 19:46:25;;;;;;;12.02;6.10;;;;;;;10.06;68.98;100733.16;6304324;22;20078;-83
2022/12/24 19:48:55;;;;;;;12.38;6.72;;;;;;;10.08;69.45;100739.22;6303947;22;20003;-84
2022/12/24 19:51:21;;;;;;;10.88;6.22;;;;;;;10.04;68.93;100713.66;6304683;22;20015;-82
2022/12/24 19:53:48;;;;;;;14.88;9.05;;;;;;;10.13;69.18;100739.56;6307213;22;20086;-82
2022/12/24 19:56:16;;;;;;;12.63;7.85;;;;;;;10.20;69.28;100746.00;6305204;22;20007;-85
2022/12/24 19:58:43;;;;;;;13.38;8.55;;;;;;;10.12;69.67;100759.41;6278118;22;20026;-84
2022/12/24 20:01:16;;;;;;;14.00;9.00;;;;;;;10.29;69.05;100745.09;6278758;22;19995;-84
2022/12/24 20:03:47;;;;;;;15.40;8.48;;;;;;;10.22;69.38;100759.31;6278103;22;20489;-83
2022/12/24 20:06:16;;;;;;;15.15;8.55;;;;;;;10.19;69.32;100755.09;6278080;22;20006;-83
2022/12/24 20:08:41;;;;;;;14.90;8.45;;;;;;;10.08;69.29;100739.22;6277375;22;19995;-82
2022/12/24 20:11:16;;;;;;;14.25;8.48;;;;;;;10.15;69.56;100764.44;6251856;22;20022;-82
2022/12/24 20:13:44;;;;;;;17.27;8.87;;;;;;;10.18;69.42;100761.44;6303203;22;20019;-83
2022/12/24 20:16:19;;;;;;;14.85;9.02;;;;;;;10.14;69.60;100752.88;6304788;22;20077;-84
2022/12/24 20:18:50;;;;;;;13.68;8.95;;;;;;;10.13;69.75;100755.69;6278164;22;20103;-84
2022/12/24 20:21:17;;;;;;;12.43;8.52;;;;;;;10.10;69.85;100758.72;6251826;22;20069;-83
2022/12/24 20:23:44;;;;;;;14.10;8.55;;;;;;;10.01;70.19;100767.69;6300414;22;20044;-84
2022/12/24 20:26:11;;;;;;;13.65;8.45;;;;;;;9.97;70.65;100771.69;6273655;22;20017;-82
2022/12/24 20:28:38;;;;;;;14.88;8.88;;;;;;;9.80;70.71;100746.53;6252252;22;20185;-82
2022/12/24 20:31:23;;;;;;;13.05;8.85;;;;;;;9.99;70.80;100772.38;6278042;22;20015;-82
2022/12/24 20:33:50;;;;;;;14.00;8.32;;;;;;;9.87;70.73;100748.44;6280731;22;20003;-84
2022/12/24 20:36:18;;;;;;;11.57;7.07;;;;;;;9.97;70.84;100755.56;6258219;22;19999;-82
2022/12/24 20:38:44;;;;;;;12.18;7.88;;;;;;;10.01;70.69;100756.94;6240966;22;20055;-82
2022/12/24 20:41:11;;;;;;;13.90;7.93;;;;;;;10.07;70.73;100764.41;6295703;22;20006;-84
2022/12/24 20:43:36;;;;;;;12.88;7.72;;;;;;;9.98;70.68;100746.53;6238998;22;20340;-84
2022/12/24 20:46:02;;;;;;;12.50;6.97;;;;;;;9.97;70.79;100750.19;6236627;22;20014;-84
2022/12/24 20:48:31;;;;;;;13.48;7.28;;;;;;;9.98;70.94;100759.94;6251579;22;20140;-81
2022/12/24 20:51:04;;;;;;;13.57;7.43;;;;;;;9.99;71.19;100767.00;6251829;22;20076;-82
2022/12/24 20:53:30;;;;;;;10.90;7.13;;;;;;;9.58;71.77;100716.47;6304370;22;20011;-82
2022/12/24 20:55:57;;;;;;;11.77;6.95;;;;;;;9.71;71.73;100734.84;6277823;22;20025;-84
2022/12/24 20:58:31;;;;;;;12.18;6.97;;;;;;;10.00;71.55;100772.22;6226952;22;20008;-82
2022/12/24 21:00:58;;;;;;;10.73;6.70;;;;;;;9.86;71.74;100754.81;6306252;22;20038;-82
2022/12/24 21:03:24;;;;;;;9.73;6.72;;;;;;;9.89;71.50;100742.91;6277553;22;20057;-84
2022/12/24 21:05:51;;;;;;;12.82;7.22;;;;;;;9.90;71.73;100755.31;6225251;22;20015;-82
2022/12/24 21:08:18;;;;;;;12.80;7.13;;;;;;;9.88;71.71;100742.06;6277106;22;20007;-81
2022/12/24 21:10:45;;;;;;;9.73;6.47;;;;;;;10.00;71.78;100760.66;6250762;22;20450;-81
2022/12/24 21:13:13;;;;;;;10.85;6.85;;;;;;;10.11;71.21;100755.88;6251407;22;20007;-82
2022/12/24 21:15:39;;;;;;;11.82;6.95;;;;;;;10.03;71.21;100749.59;6277301;22;20103;-84
2022/12/24 21:18:22;;;;;;;11.15;6.68;;;;;;;10.05;71.69;100759.16;6234243;22;20034;-84
2022/12/24 21:20:48;;;;;;;13.63;6.90;;;;;;;10.15;71.05;100769.81;6275487;22;20049;-85
2022/12/24 21:23:19;;;;;;;9.93;6.40;;;;;;;10.09;71.50;100759.69;6251839;22;19999;-84
2022/12/24 21:25:44;;;;;;;10.90;6.90;;;;;;;9.99;72.21;100765.16;6252698;22;20084;-86
2022/12/24 21:28:16;;;;;;;11.02;6.72;;;;;;;9.82;71.88;100725.72;6271935;22;20280;-84
2022/12/24 21:30:48;;;;;;;10.75;6.85;;;;;;;10.13;71.77;100769.13;6275459;22;20090;-82
2022/12/24 21:33:25;;;;;;;12.30;6.78;;;;;;;9.96;72.53;100767.31;6276545;22;19995;-83
2022/12/24 21:36:03;;;;;;;10.45;7.05;;;;;;;10.00;72.39;100768.72;6281922;22;20034;-82
2022/12/24 21:38:30;;;;;;;10.73;6.45;;;;;;;9.99;72.09;100765.16;6290479;22;19999;-82
2022/12/24 21:41:02;;;;;;;11.45;6.95;;;;;;;9.96;72.66;100775.38;6282280;22;20068;-82
2022/12/24 21:43:54;;;;;;;9.57;6.70;;;;;;;9.88;72.87;100779.69;6251577;22;20003;-82
2022/12/24 21:46:23;;;;;;;9.70;6.82;;;;;;;9.86;72.73;100778.97;6250664;22;20025;-80
2022/12/24 21:51:36;;;;;;;11.13;6.78;;;;;;;9.78;72.61;100735.94;6305339;22;20022;-79
2022/12/24 21:59:31;;;;;;;10.47;6.77;;;;;;;9.73;73.95;100782.03;6261184;22;20094;-80
2022/12/24 22:01:58;;;;;;;10.30;6.88;;;;;;;9.79;73.95;100788.66;6227635;22;20345;-81
2022/12/24 22:04:25;;;;;;;10.10;6.72;;;;;;;9.73;74.05;100791.94;6278059;22;20015;-82
2022/12/24 22:12:31;;;;;;;13.45;7.20;;;;;;;9.59;75.06;100800.50;6306442;22;20018;-82
2022/12/24 22:14:58;;;;;;;11.45;7.35;;;;;;;9.38;75.09;100758.69;6233296;22;20010;-80
2022/12/24 22:17:27;;;;;;;11.68;7.38;;;;;;;9.40;75.39;100774.63;6279877;22;20037;-81
2022/12/24 22:19:55;;;;;;;10.90;7.13;;;;;;;9.33;75.37;100752.09;6231243;22;20017;-82
2022/12/24 22:22:22;;;;;;;13.15;7.75;;;;;;;9.44;75.70;100776.88;6273084;22;20027;-81
2022/12/24 22:24:50;;;;;;;11.18;7.38;;;;;;;9.46;75.68;100776.72;6272093;22;20007;-82
2022/12/24 22:27:22;;;;;;;12.23;6.75;;;;;;;9.35;76.39;100771.56;6261638;22;20046;-84
2022/12/24 22:29:57;;;;;;;10.50;6.68;;;;;;;9.31;76.19;100768.31;6254855;22;20023;-84
2022/12/24 22:32:24;;;;;;;10.52;6.55;;;;;;;9.26;76.57;100766.09;6254325;22;20324;-83
2022/12/24 22:35:04;;;;;;;13.38;7.30;;;;;;;9.27;76.63;100774.97;6253282;22;20530;-83
2022/12/24 22:37:58;;;;;;;10.02;6.95;;;;;;;9.28;76.56;100790.09;6280116;22;20003;-79
2022/12/24 22:40:28;;;;;;;11.57;7.60;;;;;;;9.03;77.06;100771.00;6316087;22;20033;-88
2022/12/24 22:43:25;;;;;;;10.90;6.72;;;;;;;9.19;76.95;100791.00;6259410;22;19999;-85
2022/12/24 22:49:17;;;;;;;11.32;7.20;;;;;;;9.09;77.31;100802.59;6311229;22;20018;-81
2022/12/24 22:51:43;;;;;;;11.18;6.90;;;;;;;9.03;77.48;100803.19;6308390;22;20007;-85
2022/12/24 22:54:35;;;;;;;13.52;7.55;;;;;;;9.03;77.46;100807.72;6256676;22;20021;-86
2022/12/24 22:57:19;;;;;;;12.48;7.15;;;;;;;8.86;77.63;100802.13;6308201;22;20014;-84
2022/12/24 23:00:26;;;;;;;11.68;7.40;;;;;;;8.95;77.80;100821.03;6284327;22;20019;-84
2022/12/24 23:02:52;;;;;;;11.48;7.20;;;;;;;8.79;77.95;100786.78;6308029;22;20115;-84
2022/12/24 23:05:37;;;;;;;13.23;7.85;;;;;;;8.95;77.73;100824.53;6307687;22;20046;-86
2022/12/24 23:08:20;;;;;;;13.00;7.28;;;;;;;8.86;77.95;100817.38;6307636;22;20041;-86
2022/12/24 23:10:47;;;;;;;14.32;7.75;;;;;;;8.72;77.84;100793.72;6282114;22;20007;-85
2022/12/24 23:16:05;;;;;;;11.82;7.60;;;;;;;8.72;78.59;100820.53;6307364;22;20019;-85
2022/12/24 23:18:30;;;;;;;14.02;7.75;;;;;;;8.70;78.83;100827.84;6304916;22;20003;-84
2022/12/24 23:21:06;;;;;;;10.95;6.93;;;;;;;8.74;78.68;100826.59;6253811;22;20022;-83
2022/12/24 23:23:34;;;;;;;12.68;7.60;;;;;;;8.66;79.20;100840.69;6304625;22;20376;-85
2022/12/24 23:26:14;;;;;;;10.73;7.55;;;;;;;8.64;79.13;100853.41;6304481;22;20003;-83
2022/12/24 23:28:41;;;;;;;13.27;7.88;;;;;;;8.63;78.85;100836.47;6302470;22;20018;-84
2022/12/24 23:31:11;;;;;;;12.98;7.18;;;;;;;8.71;78.51;100848.31;6252945;22;20010;-83
2022/12/24 23:33:49;;;;;;;11.27;7.40;;;;;;;8.51;78.22;100809.97;6283377;22;20078;-86
2022/12/24 23:36:17;;;;;;;12.52;7.55;;;;;;;8.78;77.88;100844.03;6313961;22;20075;-88
2022/12/24 23:38:45;;;;;;;11.40;7.68;;;;;;;8.65;78.02;100831.81;6267891;22;20011;-84
2022/12/24 23:41:29;;;;;;;12.63;7.75;;;;;;;8.66;77.83;100830.84;6310233;22;20041;-82
2022/12/24 23:43:57;;;;;;;12.45;7.93;;;;;;;8.71;77.84;100846.50;6310020;22;20058;-86
2022/12/24 23:46:26;;;;;;;13.50;8.02;;;;;;;8.65;77.89;100828.28;6280601;22;20077;-87
2022/12/24 23:49:35;;;;;;;14.25;7.45;;;;;;;8.75;77.74;100850.53;6305304;22;20073;-84
2022/12/24 23:52:03;;;;;;;14.77;8.00;;;;;;;8.60;77.89;100852.84;6316700;22;19991;-84
2022/12/24 23:54:34;;;;;;;11.77;7.10;;;;;;;8.66;77.83;100862.13;6292901;22;20010;-81
2022/12/24 23:57:01;;;;;;;11.75;7.25;;;;;;;8.64;77.93;100869.50;6312410;22;20003;-84
2022/12/24 23:59:48;;;;;;;13.50;7.78;;;;;;;8.64;77.94;100874.84;6279382;22;20027;-84
